Time;durP1;ratioP1;P1;durP2;ratioP2;P2;SDS_P1;SDS_P2;PMS_P1;PMS_P2;Temp;Humidity;BMP_temperature;BMP_pressure;BME280_temperature;BME280_humidity;BME280_pressure;Samples;Min_cycle;Max_cycle;Signal;HPM_P1;HPM_P2
2022/10/10 00:01:16;;;;;;;4.15;3.33;;;;;;;10.70;80.82;101442.84;5075808;28;20047;-73
2022/10/10 00:03:42;;;;;;;3.30;3.10;;;;;;;10.69;81.00;101435.88;5059547;28;20025;-73
2022/10/10 00:06:08;;;;;;;3.33;3.10;;;;;;;10.67;81.01;101430.69;5061025;28;20340;-73
2022/10/10 00:08:34;;;;;;;3.65;3.35;;;;;;;10.69;81.13;101428.00;5056366;28;20039;-73
2022/10/10 00:10:59;;;;;;;4.40;3.63;;;;;;;10.68;81.15;101423.69;5063403;28;20036;-73
2022/10/10 00:13:25;;;;;;;3.45;3.22;;;;;;;10.67;81.36;101430.69;5061484;28;20045;-73
2022/10/10 00:15:50;;;;;;;3.85;3.55;;;;;;;10.67;80.88;101425.44;5057345;28;20100;-73
2022/10/10 00:18:16;;;;;;;3.72;3.30;;;;;;;10.67;81.33;101419.34;5071285;28;20391;-73
2022/10/10 00:20:41;;;;;;;4.45;3.92;;;;;;;10.66;80.87;101420.25;5059583;28;20232;-73
2022/10/10 00:23:07;;;;;;;3.75;3.17;;;;;;;10.67;81.33;101411.50;5029111;28;20063;-73
2022/10/10 00:25:32;;;;;;;3.97;3.67;;;;;;;10.65;81.36;101422.00;5077498;28;20052;-73
2022/10/10 00:28:02;;;;;;;3.90;3.60;;;;;;;10.65;81.67;101414.16;5058355;28;20139;-73
2022/10/10 00:30:28;;;;;;;4.43;3.70;;;;;;;10.64;82.08;101408.97;5076039;28;20029;-73
2022/10/10 00:32:54;;;;;;;3.83;3.53;;;;;;;10.65;81.79;101405.44;5069325;28;20028;-75
2022/10/10 00:35:19;;;;;;;3.88;3.35;;;;;;;10.64;81.77;101406.34;5058963;28;20051;-73
2022/10/10 00:37:45;;;;;;;5.55;3.83;;;;;;;10.64;82.15;101398.47;5060727;28;20060;-73
2022/10/10 00:40:11;;;;;;;3.75;3.45;;;;;;;10.64;81.79;101406.34;5057764;28;20041;-73
2022/10/10 00:42:36;;;;;;;2.97;2.78;;;;;;;10.63;81.83;101408.13;5056480;28;20025;-73
2022/10/10 00:45:26;;;;;;;7.95;4.53;;;;;;;10.63;81.94;101402.03;5062675;28;20039;-73
2022/10/10 00:47:59;;;;;;;4.80;3.90;;;;;;;10.62;82.08;101409.00;5059488;28;20028;-73
2022/10/10 00:50:25;;;;;;;3.55;3.30;;;;;;;10.62;82.15;101405.53;5054574;28;20028;-73
2022/10/10 00:52:51;;;;;;;3.55;3.30;;;;;;;10.61;82.43;101396.84;5059721;28;20290;-73
2022/10/10 00:55:17;;;;;;;4.63;3.63;;;;;;;10.63;82.19;101396.78;5076956;28;20037;-73
2022/10/10 00:57:43;;;;;;;3.67;3.38;;;;;;;10.61;82.21;101402.06;5056705;28;20588;-73
2022/10/10 01:00:09;;;;;;;5.28;4.05;;;;;;;10.61;82.33;101402.06;5064532;28;20021;-73
2022/10/10 01:02:35;;;;;;;4.00;3.70;;;;;;;10.61;82.73;101401.22;5075144;28;20560;-73
2022/10/10 01:05:00;;;;;;;4.40;4.05;;;;;;;10.61;82.83;101390.75;5059032;28;20031;-73
2022/10/10 01:07:29;;;;;;;3.75;3.45;;;;;;;10.60;82.40;101389.03;5076412;28;20052;-73
2022/10/10 01:09:58;;;;;;;4.15;3.75;;;;;;;10.61;82.10;101393.38;5068923;28;20224;-73
2022/10/10 01:13:03;;;;;;;3.72;3.42;;;;;;;10.60;82.66;101386.41;5076620;28;20024;-73
2022/10/10 01:15:51;;;;;;;3.80;3.20;;;;;;;10.60;82.74;101384.63;5062522;28;20248;-73
2022/10/10 01:18:43;;;;;;;5.15;3.60;;;;;;;10.59;82.64;101385.56;5075499;28;20028;-73
2022/10/10 01:21:26;;;;;;;3.30;3.00;;;;;;;10.59;82.63;101382.06;5076906;28;20033;-73
2022/10/10 01:24:29;;;;;;;3.53;3.22;;;;;;;10.59;82.80;101382.94;5055632;28;20279;-73
2022/10/10 01:27:13;;;;;;;3.65;3.38;;;;;;;10.59;82.81;101380.31;5055967;28;20233;-75
2022/10/10 01:29:42;;;;;;;3.83;3.53;;;;;;;10.57;82.43;101380.34;5072450;28;20032;-73
2022/10/10 01:32:13;;;;;;;3.75;3.45;;;;;;;10.56;82.55;101373.38;5056281;28;20099;-73
2022/10/10 01:34:45;;;;;;;3.60;3.30;;;;;;;10.55;82.54;101371.69;5058913;28;20035;-73
2022/10/10 01:37:18;;;;;;;15.50;5.03;;;;;;;10.57;82.86;101369.88;5055267;28;20112;-73
2022/10/10 01:40:03;;;;;;;9.93;3.75;;;;;;;10.56;82.83;101365.53;5061140;28;20385;-73
2022/10/10 01:42:40;;;;;;;4.10;3.70;;;;;;;10.57;82.78;101363.78;5054620;28;20037;-73
2022/10/10 01:45:06;;;;;;;4.50;3.00;;;;;;;10.56;82.77;101357.69;5071869;28;20262;-73
2022/10/10 01:47:31;;;;;;;3.85;3.55;;;;;;;10.56;82.79;101356.81;5058144;28;20131;-73
2022/10/10 01:50:01;;;;;;;4.53;3.67;;;;;;;10.55;83.24;101353.38;5055376;28;20064;-73
2022/10/10 01:52:45;;;;;;;5.03;3.60;;;;;;;10.56;82.96;101351.59;5056360;28;20205;-73
2022/10/10 01:55:21;;;;;;;4.22;3.38;;;;;;;10.55;83.08;101353.38;5070845;28;20033;-73
2022/10/10 01:58:16;;;;;;;3.85;3.53;;;;;;;10.55;83.15;101349.88;5058166;28;20040;-73
2022/10/10 02:00:53;;;;;;;3.80;3.38;;;;;;;10.55;83.14;101348.13;5058388;28;20044;-73
2022/10/10 02:03:24;;;;;;;4.35;3.45;;;;;;;10.54;83.18;101342.94;5057973;28;20031;-73
2022/10/10 02:05:59;;;;;;;3.92;3.47;;;;;;;10.54;83.25;101343.78;5057686;28;20025;-73
2022/10/10 02:08:39;;;;;;;5.50;4.47;;;;;;;10.53;83.32;101335.97;5055700;28;20059;-73
2022/10/10 02:11:08;;;;;;;4.40;3.70;;;;;;;10.54;83.26;101338.53;5072792;28;20081;-73
2022/10/10 02:13:52;;;;;;;5.25;3.70;;;;;;;10.54;83.14;101337.69;5062164;28;20028;-73
2022/10/10 02:16:22;;;;;;;6.60;4.32;;;;;;;10.52;83.29;101337.75;5059638;28;20024;-73
2022/10/10 02:18:50;;;;;;;4.28;3.88;;;;;;;10.52;83.44;101339.50;5058150;28;20048;-73
2022/10/10 02:21:17;;;;;;;4.43;4.03;;;;;;;10.52;83.71;101331.66;5056582;28;20335;-73
2022/10/10 02:23:46;;;;;;;3.70;3.35;;;;;;;10.53;83.38;101328.09;5056487;28;20236;-74
2022/10/10 02:26:15;;;;;;;4.63;4.22;;;;;;;10.50;83.79;101316.00;5070670;28;20033;-74
2022/10/10 02:28:47;;;;;;;3.75;3.45;;;;;;;10.51;83.31;101322.94;5056096;28;20025;-74
2022/10/10 02:31:17;;;;;;;3.75;3.50;;;;;;;10.50;83.24;101321.22;5070399;28;20039;-74
2022/10/10 02:33:55;;;;;;;4.00;3.40;;;;;;;10.51;83.38;101312.47;5071488;28;20033;-74
2022/10/10 02:36:22;;;;;;;4.10;3.80;;;;;;;10.49;83.56;101314.25;5073301;28;20104;-74
2022/10/10 02:38:50;;;;;;;3.80;3.50;;;;;;;10.50;83.87;101308.13;5057498;28;20538;-74
2022/10/10 02:41:17;;;;;;;4.68;4.03;;;;;;;10.50;84.07;101309.91;5056944;28;20333;-74
2022/10/10 02:43:43;;;;;;;4.43;3.63;;;;;;;10.49;83.89;101311.63;5057945;28;20100;-74
2022/10/10 02:46:12;;;;;;;3.80;3.50;;;;;;;10.49;84.12;101305.56;5060450;28;20349;-74
2022/10/10 02:48:38;;;;;;;4.50;4.10;;;;;;;10.48;84.01;101311.72;5057556;28;20330;-74
2022/10/10 02:51:04;;;;;;;4.00;3.63;;;;;;;10.47;83.86;101307.38;5074039;28;20029;-74
2022/10/10 02:53:29;;;;;;;3.65;3.30;;;;;;;10.47;83.95;101304.75;5075078;28;20315;-74
2022/10/10 02:55:55;;;;;;;3.90;3.60;;;;;;;10.47;83.87;101305.59;5063902;28;20032;-74
2022/10/10 02:58:20;;;;;;;4.20;3.80;;;;;;;10.46;84.12;101303.91;5053970;28;20036;-76
2022/10/10 03:00:46;;;;;;;3.92;3.63;;;;;;;10.46;84.15;101303.91;5065238;28;20576;-74
2022/10/10 03:03:11;;;;;;;3.80;3.45;;;;;;;10.44;84.23;101297.88;5053690;28;20382;-75
2022/10/10 03:05:37;;;;;;;4.65;3.80;;;;;;;10.44;84.25;101295.25;5063620;28;20044;-74
2022/10/10 03:08:02;;;;;;;3.67;3.30;;;;;;;10.44;83.59;101295.25;5057298;28;20033;-74
2022/10/10 03:10:28;;;;;;;4.10;3.70;;;;;;;10.44;84.04;101297.88;5036341;28;20082;-74
2022/10/10 03:12:53;;;;;;;5.22;3.47;;;;;;;10.43;83.94;101293.53;5071355;28;20040;-74
2022/10/10 03:15:18;;;;;;;4.78;3.80;;;;;;;10.42;83.78;101297.03;5074797;28;20040;-74
2022/10/10 03:17:44;;;;;;;3.50;3.20;;;;;;;10.43;83.73;101290.06;5059565;28;20335;-74
2022/10/10 03:20:10;;;;;;;4.45;4.15;;;;;;;10.42;83.70;101294.41;5060676;28;20037;-74
2022/10/10 03:22:35;;;;;;;3.92;3.55;;;;;;;10.41;83.78;101287.47;5078920;28;20064;-74
2022/10/10 03:25:01;;;;;;;4.03;3.72;;;;;;;10.42;84.02;101288.34;5061067;28;20473;-74
2022/10/10 03:27:26;;;;;;;4.30;3.75;;;;;;;10.41;84.02;101289.25;5077208;28;20032;-74
2022/10/10 03:29:52;;;;;;;4.40;3.42;;;;;;;10.40;84.20;101296.22;5077732;28;20091;-74
2022/10/10 03:32:17;;;;;;;5.45;3.88;;;;;;;10.40;84.24;101295.38;5060929;28;20039;-74
2022/10/10 03:34:43;;;;;;;3.63;3.33;;;;;;;10.37;84.11;101296.34;5041065;28;20033;-74
2022/10/10 03:37:08;;;;;;;3.95;3.65;;;;;;;10.37;83.80;101291.13;5059156;28;20317;-74
2022/10/10 03:39:34;;;;;;;5.05;4.55;;;;;;;10.36;84.13;101297.25;5060120;28;20209;-74
2022/10/10 03:41:59;;;;;;;5.97;3.72;;;;;;;10.35;83.98;101299.03;5060978;28;20312;-74
2022/10/10 03:44:25;;;;;;;4.57;3.72;;;;;;;10.35;84.17;101296.41;5058426;28;20077;-74
2022/10/10 03:46:50;;;;;;;3.45;3.15;;;;;;;10.34;83.88;101294.66;5060910;28;20024;-74
2022/10/10 03:49:16;;;;;;;3.80;3.50;;;;;;;10.34;84.17;101288.59;5076310;28;20300;-74
2022/10/10 03:51:41;;;;;;;5.03;4.60;;;;;;;10.33;83.93;101294.72;5060980;28;20028;-74
2022/10/10 03:54:07;;;;;;;4.03;3.72;;;;;;;10.32;83.81;101290.41;5078629;28;20032;-74
2022/10/10 03:56:32;;;;;;;4.35;4.05;;;;;;;10.32;83.97;101300.88;5077979;28;20262;-74
2022/10/10 03:58:59;;;;;;;4.10;3.80;;;;;;;10.31;84.03;101294.75;5078651;28;20148;-74
2022/10/10 04:01:28;;;;;;;4.85;4.40;;;;;;;10.29;84.19;101304.41;5072045;28;20428;-74
2022/10/10 04:03:54;;;;;;;4.10;3.80;;;;;;;10.30;84.17;101294.81;5059125;28;20363;-76
2022/10/10 04:06:20;;;;;;;5.15;4.30;;;;;;;10.29;84.02;101295.69;5076812;28;20016;-74
2022/10/10 04:08:45;;;;;;;5.25;4.45;;;;;;;10.28;83.95;101299.25;5040321;28;20032;-74
2022/10/10 04:11:11;;;;;;;4.13;3.83;;;;;;;10.27;83.79;101295.75;5074028;28;20393;-74
2022/10/10 04:13:36;;;;;;;4.43;4.00;;;;;;;10.27;84.29;101290.50;5057352;28;20036;-74
2022/10/10 04:16:02;;;;;;;4.85;4.35;;;;;;;10.26;84.33;101288.81;5071520;28;20040;-74
2022/10/10 04:18:28;;;;;;;4.30;3.95;;;;;;;10.25;84.41;101291.47;5058064;28;20025;-74
2022/10/10 04:20:53;;;;;;;4.60;4.20;;;;;;;10.24;84.50;101285.41;5057309;28;20039;-74
2022/10/10 04:23:19;;;;;;;3.95;3.65;;;;;;;10.24;84.44;101281.91;5076379;28;20350;-74
2022/10/10 04:25:44;;;;;;;7.60;4.95;;;;;;;10.23;84.06;101288.91;5059805;28;20044;-74
2022/10/10 04:28:11;;;;;;;4.57;4.18;;;;;;;10.23;84.35;101286.28;5078016;28;20040;-74
2022/10/10 04:30:36;;;;;;;5.18;4.30;;;;;;;10.23;84.23;101280.19;5060162;28;20551;-74
2022/10/10 04:33:02;;;;;;;5.50;4.40;;;;;;;10.22;84.26;101276.72;5075425;28;20095;-74
2022/10/10 04:35:27;;;;;;;5.60;4.15;;;;;;;10.21;84.38;101277.63;5077625;28;20039;-74
2022/10/10 04:37:53;;;;;;;6.28;4.32;;;;;;;10.21;84.47;101288.09;5056657;28;20269;-74
2022/10/10 04:40:18;;;;;;;3.92;3.53;;;;;;;10.21;84.25;101289.88;5069419;28;20043;-74
2022/10/10 04:42:44;;;;;;;5.22;3.58;;;;;;;10.21;84.33;101292.50;5077430;28;20051;-74
2022/10/10 04:45:09;;;;;;;4.32;3.92;;;;;;;10.17;84.23;101287.34;5077745;28;20293;-74
2022/10/10 04:47:35;;;;;;;6.35;4.40;;;;;;;10.18;83.97;101288.19;5055839;28;20044;-74
2022/10/10 04:50:00;;;;;;;6.32;4.53;;;;;;;10.17;84.47;101291.72;5059950;28;20033;-74
2022/10/10 04:52:26;;;;;;;5.70;5.05;;;;;;;10.17;84.31;101289.09;5075569;28;20040;-74
2022/10/10 04:54:51;;;;;;;7.03;4.90;;;;;;;10.17;84.32;101291.72;5059680;28;20031;-74
2022/10/10 04:57:17;;;;;;;5.78;5.15;;;;;;;10.16;84.49;101295.22;5072679;28;20474;-74
2022/10/10 04:59:42;;;;;;;5.10;4.60;;;;;;;10.14;84.62;101292.66;5059434;28;20413;-74
2022/10/10 05:02:09;;;;;;;6.60;4.68;;;;;;;10.14;84.80;101297.91;5057206;28;20036;-74
2022/10/10 05:04:34;;;;;;;4.72;4.32;;;;;;;10.13;84.58;101296.19;5055620;28;20059;-77
2022/10/10 05:06:59;;;;;;;4.20;3.88;;;;;;;10.12;84.63;101302.31;5056940;28;20033;-74
2022/10/10 05:09:25;;;;;;;4.43;4.03;;;;;;;10.12;84.70;101301.47;5056121;28;20029;-74
2022/10/10 05:11:51;;;;;;;5.43;4.30;;;;;;;10.12;84.64;101304.09;5058656;28;20106;-74
2022/10/10 05:14:16;;;;;;;4.18;3.83;;;;;;;10.10;84.77;101304.13;5075620;28;20340;-76
2022/10/10 05:16:42;;;;;;;4.18;3.85;;;;;;;10.10;84.64;101306.75;5075837;28;20039;-74
2022/10/10 05:19:08;;;;;;;4.32;3.92;;;;;;;10.08;84.49;101305.94;5056068;28;20040;-76
2022/10/10 05:21:33;;;;;;;9.52;5.15;;;;;;;10.10;84.65;101311.13;5041296;28;20060;-77
2022/10/10 05:23:58;;;;;;;5.00;4.43;;;;;;;10.09;84.56;101317.25;5076877;28;20229;-75
2022/10/10 05:26:24;;;;;;;4.28;3.85;;;;;;;10.08;84.54;101308.56;5074871;28;20190;-75
2022/10/10 05:28:49;;;;;;;5.35;4.10;;;;;;;10.06;84.49;101309.50;5071253;28;20224;-75
2022/10/10 05:31:15;;;;;;;4.97;4.57;;;;;;;10.06;84.44;101306.88;5072916;28;20052;-75
2022/10/10 05:33:40;;;;;;;4.40;4.00;;;;;;;10.05;84.73;101299.97;5038579;28;20040;-75
2022/10/10 05:36:09;;;;;;;4.35;3.90;;;;;;;10.04;84.31;101306.06;5072233;28;20036;-75
2022/10/10 05:38:34;;;;;;;;;;;;;;;10.03;84.75;101301.78;5070896;28;20045;-75
2022/10/10 05:41:00;;;;;;;4.63;4.18;;;;;;;10.03;84.60;101307.00;5075630;28;19959;-75
2022/10/10 05:43:26;;;;;;;4.65;4.35;;;;;;;10.03;84.89;101312.22;5054838;28;20040;-75
2022/10/10 05:45:51;;;;;;;5.30;3.95;;;;;;;10.01;84.62;101307.03;5056047;28;20085;-75
2022/10/10 05:48:17;;;;;;;6.53;4.72;;;;;;;10.00;84.69;101307.94;5061526;28;20039;-75
2022/10/10 05:50:49;;;;;;;7.25;4.30;;;;;;;10.00;85.07;101315.78;5073321;28;20134;-75
2022/10/10 05:53:15;;;;;;;6.45;4.47;;;;;;;10.01;85.25;101311.44;5072964;28;20038;-75
2022/10/10 05:55:40;;;;;;;4.60;4.07;;;;;;;10.00;85.34;101307.94;5065014;28;20028;-75
2022/10/10 05:58:06;;;;;;;5.65;5.13;;;;;;;9.99;85.42;101314.94;5047635;28;20085;-75
2022/10/10 06:00:32;;;;;;;4.18;3.88;;;;;;;9.98;85.34;101315.81;5036355;28;20212;-75
2022/10/10 06:02:57;;;;;;;4.35;3.92;;;;;;;9.99;85.27;101311.47;5051934;28;20043;-75
2022/10/10 06:05:23;;;;;;;4.97;3.28;;;;;;;9.98;84.95;101307.13;5045916;28;20213;-75
2022/10/10 06:07:49;;;;;;;5.93;4.30;;;;;;;9.99;85.26;101314.94;5077132;28;20035;-75
2022/10/10 06:10:14;;;;;;;4.40;3.33;;;;;;;9.98;85.11;101302.75;5055558;28;20240;-75
2022/10/10 06:12:39;;;;;;;5.03;3.97;;;;;;;10.00;85.25;101310.56;5072162;28;20262;-75
2022/10/10 06:15:06;;;;;;;4.25;3.67;;;;;;;9.99;85.15;101308.84;5070338;28;20197;-75
2022/10/10 06:17:31;;;;;;;4.70;3.95;;;;;;;10.00;85.25;101305.31;5073533;28;20104;-76
2022/10/10 06:19:57;;;;;;;4.40;3.17;;;;;;;10.02;84.98;101313.13;5073345;28;20032;-75
2022/10/10 06:22:23;;;;;;;4.18;3.80;;;;;;;10.01;85.15;101308.81;5073764;28;20358;-75
2022/10/10 06:24:48;;;;;;;8.88;4.53;;;;;;;10.00;85.02;101310.56;5050982;28;20029;-75
2022/10/10 06:27:14;;;;;;;4.55;4.13;;;;;;;10.01;85.04;101303.56;5039083;28;20131;-75
2022/10/10 06:29:39;;;;;;;4.10;3.80;;;;;;;10.02;84.99;101313.13;5066418;28;20056;-75
2022/10/10 06:32:07;;;;;;;4.15;3.83;;;;;;;10.02;85.05;101313.97;5037441;28;20029;-75
2022/10/10 06:34:33;;;;;;;4.97;3.80;;;;;;;10.02;85.24;101313.97;5072375;28;20316;-75
2022/10/10 06:36:58;;;;;;;4.80;3.90;;;;;;;10.03;85.26;101320.94;5060802;28;20041;-75
2022/10/10 06:39:24;;;;;;;5.05;4.32;;;;;;;10.04;84.86;101327.91;5064701;28;20059;-75
2022/10/10 06:41:49;;;;;;;5.22;4.03;;;;;;;10.05;84.87;101329.59;5055994;28;20036;-75
2022/10/10 06:44:18;;;;;;;5.85;4.45;;;;;;;10.05;84.90;101326.13;5055243;28;20040;-75
2022/10/10 06:46:44;;;;;;;5.07;4.55;;;;;;;10.06;85.18;101333.06;5072864;28;20208;-75
2022/10/10 06:49:09;;;;;;;4.43;4.13;;;;;;;10.07;84.93;101329.53;5064227;28;20037;-75
2022/10/10 06:51:36;;;;;;;5.57;4.68;;;;;;;10.08;85.36;101332.13;5063896;28;20219;-75
2022/10/10 06:54:02;;;;;;;4.70;4.30;;;;;;;10.08;85.72;101323.41;5057039;28;20021;-75
2022/10/10 06:56:27;;;;;;;7.15;4.35;;;;;;;10.09;86.06;101327.72;5065795;28;20328;-75
2022/10/10 06:58:53;;;;;;;4.80;3.78;;;;;;;10.09;86.17;101331.19;5063094;28;20205;-75
2022/10/10 07:01:22;;;;;;;5.05;4.32;;;;;;;10.09;86.04;101325.97;5067051;28;20029;-75
2022/10/10 07:03:47;;;;;;;;;;;;;;;10.10;86.33;101339.94;5045447;28;20020;-75
2022/10/10 07:06:13;;;;;;;10.53;4.33;;;;;;;10.10;86.46;101343.41;5062143;28;19943;-75
2022/10/10 07:08:39;;;;;;;6.88;3.97;;;;;;;10.10;85.87;101348.63;5062027;28;20310;-75
2022/10/10 07:11:06;;;;;;;4.38;3.97;;;;;;;10.11;86.37;101349.47;5041373;28;20427;-75
2022/10/10 07:13:34;;;;;;;4.70;4.30;;;;;;;10.11;85.87;101355.56;5066656;28;20411;-75
2022/10/10 07:15:59;;;;;;;7.88;4.50;;;;;;;10.12;85.77;101356.44;5065141;28;20324;-75
2022/10/10 07:18:25;;;;;;;4.95;4.43;;;;;;;10.12;85.90;101359.91;5045512;28;20032;-75
2022/10/10 07:20:55;;;;;;;5.70;5.15;;;;;;;10.13;85.94;101359.00;5064933;28;20059;-75
2022/10/10 07:23:20;;;;;;;7.88;5.05;;;;;;;10.14;85.96;101359.88;5059739;28;20033;-75
2022/10/10 07:25:46;;;;;;;6.05;4.40;;;;;;;10.15;85.81;101351.09;5066713;28;20025;-75
2022/10/10 07:28:11;;;;;;;5.00;3.97;;;;;;;10.16;86.20;101353.66;5045479;28;20032;-75
2022/10/10 07:30:45;;;;;;;5.70;4.07;;;;;;;10.17;86.39;101350.16;5062707;28;20090;-75
2022/10/10 07:33:14;;;;;;;4.70;4.30;;;;;;;10.18;86.24;101344.00;5067588;28;20244;-75
2022/10/10 07:35:41;;;;;;;4.80;4.40;;;;;;;10.19;86.57;101344.88;5047182;28;20029;-75
2022/10/10 07:38:06;;;;;;;5.35;4.85;;;;;;;10.21;86.63;101350.91;5063817;28;20033;-76
2022/10/10 07:40:32;;;;;;;4.90;4.45;;;;;;;10.22;86.10;101355.22;5065930;28;20052;-76
2022/10/10 07:42:58;;;;;;;6.60;4.28;;;;;;;10.22;85.84;101357.84;5048232;28;20044;-75
2022/10/10 07:45:24;;;;;;;6.90;4.40;;;;;;;10.26;85.99;101356.00;5027136;28;20048;-75
2022/10/10 07:47:51;;;;;;;7.50;5.32;;;;;;;10.26;86.23;101359.50;5047356;28;20028;-76
2022/10/10 07:50:17;;;;;;;7.38;5.07;;;;;;;10.28;85.73;101362.06;5064099;28;20078;-75
2022/10/10 07:52:42;;;;;;;6.10;4.60;;;;;;;10.29;85.84;101372.47;5047424;28;20302;-75
2022/10/10 07:55:08;;;;;;;5.28;4.78;;;;;;;10.30;85.65;101368.97;5065974;28;20033;-75
2022/10/10 07:57:34;;;;;;;5.50;5.00;;;;;;;10.33;85.67;101370.66;5061837;28;20246;-75
2022/10/10 08:00:02;;;;;;;5.75;5.15;;;;;;;10.34;85.84;101375.00;5068282;28;20060;-75
2022/10/10 08:02:28;;;;;;;6.15;4.80;;;;;;;10.34;85.25;101373.22;5051919;28;20043;-75
2022/10/10 08:04:53;;;;;;;5.80;5.22;;;;;;;10.36;86.00;101375.78;5038519;28;20336;-75
2022/10/10 08:07:19;;;;;;;7.47;5.63;;;;;;;10.38;86.18;101389.69;5043967;28;20354;-75
2022/10/10 08:09:44;;;;;;;5.57;5.05;;;;;;;10.40;86.74;101387.03;5044737;28;20032;-75
2022/10/10 08:12:10;;;;;;;6.93;5.07;;;;;;;10.42;86.03;101395.69;5037994;28;20147;-75
2022/10/10 08:14:35;;;;;;;6.72;5.50;;;;;;;10.42;85.79;101401.78;5049937;28;20041;-75
2022/10/10 08:17:01;;;;;;;6.45;5.53;;;;;;;10.44;86.30;101397.38;5069354;28;20035;-75
2022/10/10 08:19:26;;;;;;;8.65;5.40;;;;;;;10.46;87.16;101403.41;5065680;28;20493;-75
2022/10/10 08:21:51;;;;;;;8.10;5.85;;;;;;;10.47;87.25;101402.50;5050927;28;20037;-75
2022/10/10 08:24:17;;;;;;;6.38;5.20;;;;;;;10.48;86.49;101401.59;5066731;28;20037;-76
2022/10/10 08:26:42;;;;;;;8.23;5.13;;;;;;;10.51;86.72;101404.13;5068476;28;20052;-75
2022/10/10 08:29:08;;;;;;;6.13;4.75;;;;;;;10.52;86.49;101402.38;5031610;28;20474;-76
2022/10/10 08:31:33;;;;;;;6.82;4.93;;;;;;;10.55;86.67;101412.72;5067682;28;20432;-76
2022/10/10 08:33:58;;;;;;;6.57;4.80;;;;;;;10.56;87.18;101412.69;5070270;28;20100;-75
2022/10/10 08:36:24;;;;;;;7.72;5.47;;;;;;;10.59;87.15;101416.09;5049316;28;20286;-75
2022/10/10 08:38:52;;;;;;;6.07;4.85;;;;;;;10.61;88.01;101411.69;5049701;28;20244;-75
2022/10/10 08:41:20;;;;;;;9.73;5.63;;;;;;;10.63;88.25;101407.25;5067895;28;20124;-75
2022/10/10 08:43:53;;;;;;;9.70;5.93;;;;;;;10.64;88.69;101394.13;5068984;28;20293;-75
2022/10/10 08:46:35;;;;;;;14.90;6.60;;;;;;;10.67;89.66;101394.00;5053261;28;20028;-75
2022/10/10 08:49:12;;;;;;;7.45;5.47;;;;;;;10.68;89.47;101400.97;5065676;28;20032;-75
2022/10/10 08:51:41;;;;;;;6.35;5.63;;;;;;;10.69;89.13;101415.75;5054125;28;20266;-76
2022/10/10 08:54:12;;;;;;;7.03;4.90;;;;;;;10.71;88.82;101420.97;5051443;28;20021;-75
2022/10/10 08:56:38;;;;;;;8.93;5.78;;;;;;;10.73;89.13;101417.41;5063757;28;20108;-75
2022/10/10 08:59:13;;;;;;;8.63;5.13;;;;;;;10.76;89.06;101411.19;5050692;28;20261;-75
2022/10/10 09:01:39;;;;;;;9.77;6.15;;;;;;;10.77;89.03;101412.91;5065730;28;20034;-76
2022/10/10 09:04:11;;;;;;;8.40;5.50;;;;;;;10.81;89.39;101411.06;5049359;28;20170;-75
2022/10/10 09:06:52;;;;;;;8.07;6.00;;;;;;;10.84;89.17;101424.03;5066596;28;20027;-75
2022/10/10 09:09:17;;;;;;;13.00;6.43;;;;;;;10.88;89.52;101433.53;5065261;28;20063;-75
2022/10/10 09:11:54;;;;;;;7.10;5.50;;;;;;;10.90;90.06;101429.09;5068023;28;20025;-76
2022/10/10 09:14:32;;;;;;;14.88;5.75;;;;;;;10.92;89.89;101417.66;5051022;28;20039;-76
2022/10/10 09:17:12;;;;;;;10.30;5.88;;;;;;;10.96;89.92;101426.25;5067754;28;20320;-75
2022/10/10 09:19:52;;;;;;;7.45;6.03;;;;;;;10.99;89.52;101426.19;5066532;28;20035;-76
2022/10/10 09:22:24;;;;;;;10.77;5.75;;;;;;;11.03;90.63;101427.78;5067896;28;20031;-76
2022/10/10 09:25:00;;;;;;;6.53;5.80;;;;;;;11.05;90.22;101428.59;5067642;28;20028;-75
2022/10/10 09:27:30;;;;;;;7.72;5.32;;;;;;;11.10;90.76;101437.16;5066367;28;20332;-75
2022/10/10 09:30:13;;;;;;;11.13;6.20;;;;;;;11.16;91.43;101443.94;5051695;28;20066;-76
2022/10/10 09:32:44;;;;;;;8.80;5.65;;;;;;;11.20;90.96;101444.72;5067049;28;20062;-75
2022/10/10 09:35:33;;;;;;;18.13;6.95;;;;;;;11.25;91.78;101448.88;5048657;28;20029;-75
2022/10/10 09:38:14;;;;;;;16.48;6.40;;;;;;;11.28;90.87;101456.66;5069450;28;20209;-75
2022/10/10 09:40:47;;;;;;;6.78;5.30;;;;;;;11.31;90.35;101453.94;5067133;28;20048;-76
2022/10/10 09:43:17;;;;;;;6.85;5.38;;;;;;;11.36;91.20;101456.38;5067982;28;20049;-75
2022/10/10 09:45:50;;;;;;;10.70;5.22;;;;;;;11.40;89.88;101462.38;5067224;28;20034;-76
2022/10/10 09:48:15;;;;;;;7.65;5.30;;;;;;;11.43;90.37;101471.00;5065161;28;20600;-75
2022/10/10 09:50:40;;;;;;;9.73;5.80;;;;;;;11.48;91.30;101463.84;5065684;28;20051;-75
2022/10/10 09:53:06;;;;;;;6.63;5.32;;;;;;;11.54;91.75;101462.78;5062262;28;20099;-76
2022/10/10 09:55:39;;;;;;;14.77;5.90;;;;;;;11.60;92.95;101470.41;5066733;28;20668;-76
2022/10/10 09:58:24;;;;;;;10.18;5.78;;;;;;;11.63;92.89;101478.19;5062460;28;20104;-75
2022/10/10 10:00:50;;;;;;;14.57;5.40;;;;;;;11.68;92.59;101475.41;5050516;28;20257;-76
2022/10/10 10:03:17;;;;;;;8.30;6.20;;;;;;;11.74;93.09;101487.47;5058274;28;20033;-76
2022/10/10 10:05:56;;;;;;;14.55;6.63;;;;;;;11.78;93.63;101494.31;5046965;28;20029;-76
2022/10/10 10:08:35;;;;;;;12.68;5.57;;;;;;;11.82;93.16;101495.91;5052370;28;20371;-75
2022/10/10 10:11:02;;;;;;;10.85;5.30;;;;;;;11.87;92.81;101488.72;5045278;28;20025;-75
2022/10/10 10:13:36;;;;;;;8.70;5.07;;;;;;;11.93;92.13;101500.81;5060683;28;20068;-75
2022/10/10 10:16:07;;;;;;;7.35;4.88;;;;;;;11.99;92.89;101498.84;5053292;28;20189;-75
2022/10/10 10:18:46;;;;;;;10.77;5.40;;;;;;;12.04;93.49;101504.78;5069345;28;20179;-75
2022/10/10 10:21:23;;;;;;;12.35;6.47;;;;;;;12.11;93.74;101500.13;5070009;28;20247;-75
2022/10/10 10:24:21;;;;;;;7.95;5.78;;;;;;;12.16;93.16;101513.13;5073251;28;20067;-75
2022/10/10 10:26:47;;;;;;;17.20;6.72;;;;;;;12.20;93.25;101506.81;5026796;28;20345;-75
2022/10/10 10:29:27;;;;;;;14.93;5.82;;;;;;;12.25;92.85;101515.41;5043109;28;20047;-76
2022/10/10 10:32:16;;;;;;;12.88;5.65;;;;;;;12.28;92.22;101516.16;5068918;28;20016;-76
2022/10/10 10:34:59;;;;;;;6.90;4.70;;;;;;;12.31;91.11;101533.53;5064142;28;20192;-75
2022/10/10 10:37:37;;;;;;;6.57;4.70;;;;;;;12.34;90.68;101543.94;5055555;28;20036;-76
2022/10/10 10:40:21;;;;;;;13.88;4.78;;;;;;;12.36;90.21;101539.50;5054351;28;20049;-76
2022/10/10 10:43:01;;;;;;;9.48;4.15;;;;;;;12.37;89.50;101530.72;5044776;28;20028;-76
2022/10/10 10:45:55;;;;;;;6.90;4.95;;;;;;;12.40;90.41;101540.25;5046427;28;20032;-76
2022/10/10 10:48:46;;;;;;;11.27;4.60;;;;;;;12.42;89.46;101536.63;5044575;28;20032;-76
2022/10/10 10:51:44;;;;;;;6.45;4.35;;;;;;;12.44;89.60;101541.81;5053146;28;20032;-76
2022/10/10 10:54:12;;;;;;;11.10;5.22;;;;;;;12.49;90.46;101539.88;5053110;28;20096;-75
2022/10/10 10:56:45;;;;;;;8.37;4.90;;;;;;;12.51;89.68;101538.06;5052513;28;20365;-76
2022/10/10 10:59:28;;;;;;;9.40;4.30;;;;;;;12.54;89.00;101544.97;5056754;28;20603;-76
2022/10/10 11:01:59;;;;;;;13.07;4.97;;;;;;;12.57;89.08;101547.47;5043321;28;20055;-76
2022/10/10 11:04:37;;;;;;;6.80;4.53;;;;;;;12.60;88.88;101540.34;5040076;28;20025;-76
2022/10/10 11:07:14;;;;;;;6.22;4.65;;;;;;;12.62;89.50;101549.00;5052641;28;20102;-76
2022/10/10 11:10:15;;;;;;;7.78;4.50;;;;;;;12.65;90.57;101543.66;5059474;28;20088;-76
2022/10/10 11:12:53;;;;;;;8.45;4.15;;;;;;;12.66;89.23;101540.13;5064070;28;20048;-76
2022/10/10 11:15:28;;;;;;;14.48;5.05;;;;;;;12.71;90.30;101536.44;5050183;28;20033;-76
2022/10/10 11:18:10;;;;;;;11.95;5.35;;;;;;;12.73;91.19;101545.13;5060014;28;20031;-76
2022/10/10 11:20:39;;;;;;;14.50;5.05;;;;;;;12.75;91.76;101549.44;5049218;28;20053;-76
2022/10/10 11:23:11;;;;;;;13.52;4.55;;;;;;;12.78;91.52;101548.44;5051210;28;20103;-76
2022/10/10 11:25:49;;;;;;;7.55;4.65;;;;;;;12.81;91.58;101538.66;5061746;28;20445;-76
2022/10/10 11:28:21;;;;;;;8.93;5.00;;;;;;;12.85;93.08;101560.44;5051044;28;20224;-76
2022/10/10 11:31:11;;;;;;;8.77;4.60;;;;;;;12.87;93.08;101551.56;5051992;28;20039;-76
2022/10/10 11:33:45;;;;;;;6.90;4.47;;;;;;;12.90;92.14;101552.34;5009997;28;20047;-76
2022/10/10 11:36:16;;;;;;;10.45;5.07;;;;;;;12.93;91.97;101560.13;5055466;28;20041;-76